Capitol Logistics 2310

Operating for ATN



KBWI
Baltimore/Washington International Thurgood Marshall Airport
Baltimore, Maryland
BGTL
Thule Air Base
Thule,

Activity Log

Date Flight Route Aircraft Duration
04/12/2021 CPX2310 PALEO3 SIE J55 PQI YYY YBC ARAME YWK J583 YDP PEPKI 65N059W IKNOG 70N062W MANSE LUCIE WENSA B752 5h 50m

Route Details

Aircraft Information
Primary: Boeing 757-200SF
Backup: Not Available
Route Data
Distance: 2255nm
Duration: 5h 20m
Recm'd Route: PALEO3 SIE J55 PQI YYY YBC ARAME YWK J583 YDP PEPKI 6500N/05900W IKNOG 7000N/05700W UP TOMAS SAVIS THT
Origin Wx: KBWI 020354Z 33005KT 10SM BKN075 21/18 A2990 RMK AO2 SLP123 T02060178
Dest. Wx: BGTL 020356Z AUTO 00000KT 9999 CLR 07/07 A2960 RMK AO2 SLP008 T00670067 400790031 TSNO $
Notes: USTRANSCOM CONTRACT FLIGHT | 1X PER WEEK | PAYLOAD LIMITED | ETOPS